createdAt,value
2023-02-20T00:01:32.273Z,100.00
2023-02-20T00:04:00.649Z,100.00
2023-02-20T00:06:30.325Z,100.00
2023-02-20T00:08:58.641Z,100.00
2023-02-20T00:11:27.034Z,100.00
2023-02-20T00:13:55.440Z,100.00
2023-02-20T00:16:23.777Z,100.00
2023-02-20T00:18:52.191Z,100.00
2023-02-20T00:21:20.627Z,100.00
2023-02-20T00:23:50.570Z,100.00
2023-02-20T00:26:19.148Z,100.00
2023-02-20T00:28:47.711Z,100.00
2023-02-20T00:31:18.486Z,100.00
2023-02-20T00:33:47.153Z,100.00
2023-02-20T00:36:18.478Z,100.00
2023-02-20T00:38:47.413Z,100.00
2023-02-20T00:41:17.643Z,100.00
2023-02-20T00:43:46.090Z,100.00
2023-02-20T00:46:15.938Z,100.00
2023-02-20T00:48:44.860Z,100.00
2023-02-20T00:51:33.446Z,100.00
2023-02-20T00:54:01.804Z,100.00
2023-02-20T00:56:31.584Z,100.00
2023-02-20T00:58:59.969Z,100.00
2023-02-20T01:01:28.812Z,100.00
2023-02-20T01:03:57.305Z,100.00
2023-02-20T01:06:25.836Z,100.00
2023-02-20T01:08:54.193Z,100.00
2023-02-20T01:11:23.220Z,100.00
2023-02-20T01:13:52.976Z,100.00
2023-02-20T01:16:21.506Z,100.00
2023-02-20T01:18:51.821Z,100.00
2023-02-20T01:21:20.257Z,100.00
2023-02-20T01:23:50.395Z,100.00
2023-02-20T01:26:18.854Z,100.00
2023-02-20T01:28:49.166Z,100.00
2023-02-20T01:31:19.100Z,100.00
2023-02-20T01:33:47.491Z,100.00
2023-02-20T01:36:15.922Z,100.00
2023-02-20T01:38:44.244Z,100.00
2023-02-20T01:41:13.086Z,100.00
2023-02-20T01:43:42.202Z,100.00
2023-02-20T01:46:58.341Z,100.00
2023-02-20T01:49:34.388Z,100.00
2023-02-20T01:52:11.258Z,100.00
2023-02-20T01:54:42.652Z,100.00
2023-02-20T01:57:15.993Z,100.00
2023-02-20T01:59:45.152Z,100.00
2023-02-20T02:02:16.684Z,100.00
2023-02-20T02:04:48.610Z,100.00
2023-02-20T02:07:17.363Z,100.00
2023-02-20T02:09:51.596Z,100.00
2023-02-20T02:12:19.939Z,100.00
2023-02-20T02:14:48.408Z,100.00
2023-02-20T02:17:43.170Z,100.00
2023-02-20T02:20:39.686Z,100.00
2023-02-20T02:23:52.929Z,100.00
2023-02-20T02:26:54.342Z,100.00
2023-02-20T02:29:47.620Z,100.00
2023-02-20T02:32:36.929Z,100.00
2023-02-20T02:35:44.834Z,100.00
2023-02-20T02:38:26.611Z,100.00
2023-02-20T02:41:01.920Z,100.00
2023-02-20T02:43:39.984Z,100.00
2023-02-20T02:46:13.152Z,100.00
2023-02-20T02:48:48.478Z,100.00
2023-02-20T02:51:21.373Z,100.00
2023-02-20T02:54:10.664Z,100.00
2023-02-20T02:56:41.072Z,100.00
2023-02-20T02:59:13.899Z,100.00
2023-02-20T03:01:47.644Z,100.00
2023-02-20T03:04:23.523Z,100.00
2023-02-20T03:06:56.951Z,100.00
2023-02-20T03:09:29.905Z,100.00
2023-02-20T03:12:01.383Z,100.00
2023-02-20T03:14:55.929Z,100.00
2023-02-20T03:17:30.731Z,100.00
2023-02-20T03:20:02.050Z,100.00
2023-02-20T03:22:37.699Z,100.00
2023-02-20T03:25:13.144Z,100.00
2023-02-20T03:27:47.709Z,100.00
2023-02-20T03:30:21.841Z,100.00
2023-02-20T03:33:12.381Z,100.00
2023-02-20T03:36:02.835Z,100.00
2023-02-20T03:38:54.114Z,100.00
2023-02-20T03:41:45.588Z,100.00
2023-02-20T03:44:16.622Z,100.00
2023-02-20T03:46:48.910Z,100.00
2023-02-20T03:49:22.357Z,100.00
2023-02-20T03:52:00.317Z,100.00
2023-02-20T03:54:37.710Z,100.00
2023-02-20T03:57:11.582Z,100.00
2023-02-20T03:59:45.327Z,100.00
2023-02-20T04:02:19.687Z,100.00
2023-02-20T04:04:53.203Z,100.00
2023-02-20T04:07:25.974Z,100.00
2023-02-20T04:09:58.957Z,100.00
2023-02-20T04:12:33.252Z,100.00
2023-02-20T04:15:03.133Z,100.00
2023-02-20T04:17:38.460Z,100.00
2023-02-20T04:20:07.595Z,100.00
2023-02-20T04:22:45.482Z,100.00
2023-02-20T04:25:19.749Z,100.00
2023-02-20T04:27:49.982Z,100.00
2023-02-20T04:30:19.106Z,100.00
2023-02-20T04:32:47.548Z,100.00
2023-02-20T04:35:19.104Z,100.00
2023-02-20T04:37:49.451Z,100.00
2023-02-20T04:40:21.067Z,100.00
2023-02-20T04:42:51.244Z,100.00
2023-02-20T04:45:19.994Z,100.00
2023-02-20T04:47:48.558Z,100.00
2023-02-20T04:50:22.516Z,100.00
2023-02-20T04:52:52.618Z,100.00
2023-02-20T04:55:21.662Z,100.00
2023-02-20T04:57:56.098Z,100.00
2023-02-20T05:00:26.509Z,100.00
2023-02-20T05:02:55.440Z,100.00
2023-02-20T05:05:25.781Z,100.00
2023-02-20T05:07:56.016Z,100.00
2023-02-20T05:10:25.636Z,100.00
2023-02-20T05:12:56.376Z,100.00
2023-02-20T05:15:25.751Z,100.00
2023-02-20T05:17:54.190Z,100.00
2023-02-20T05:20:42.555Z,100.00
2023-02-20T05:23:09.981Z,100.00
2023-02-20T05:25:38.668Z,100.00
2023-02-20T05:28:08.547Z,100.00
2023-02-20T05:30:37.425Z,100.00
2023-02-20T05:33:05.791Z,100.00
2023-02-20T05:35:35.914Z,100.00
2023-02-20T05:38:04.260Z,100.00
2023-02-20T05:40:32.808Z,100.00
2023-02-20T05:43:01.217Z,100.00
2023-02-20T05:45:30.929Z,100.00
2023-02-20T05:47:59.345Z,100.00
2023-02-20T05:50:27.701Z,100.00
2023-02-20T05:52:56.084Z,100.00
2023-02-20T05:55:24.527Z,100.00
2023-02-20T05:57:52.946Z,100.00
2023-02-20T06:00:21.948Z,100.00
2023-02-20T06:02:51.827Z,100.00
2023-02-20T06:05:20.356Z,100.00
2023-02-20T06:07:48.896Z,100.00
2023-02-20T06:10:19.483Z,100.00
2023-02-20T06:12:47.975Z,100.00
2023-02-20T06:15:16.519Z,100.00
2023-02-20T06:17:44.925Z,100.00
2023-02-20T06:20:14.937Z,100.00
2023-02-20T06:22:43.310Z,100.00
2023-02-20T06:25:13.953Z,100.00
2023-02-20T06:27:42.667Z,100.00
2023-02-20T06:30:12.395Z,100.00
2023-02-20T06:32:41.200Z,100.00
2023-02-20T06:35:10.146Z,100.00
2023-02-20T06:37:39.837Z,100.00
2023-02-20T06:40:09.017Z,100.00
2023-02-20T06:42:37.581Z,100.00
2023-02-20T06:45:06.457Z,100.00
2023-02-20T06:47:34.776Z,100.00
2023-02-20T06:50:03.173Z,100.00
2023-02-20T06:52:31.526Z,100.00
2023-02-20T06:55:01.246Z,100.00
2023-02-20T06:57:29.663Z,100.00
2023-02-20T06:59:58.152Z,100.00
2023-02-20T07:02:26.595Z,100.00
2023-02-20T07:04:54.945Z,100.00
2023-02-20T07:07:23.438Z,100.00
2023-02-20T07:09:51.766Z,100.00
2023-02-20T07:12:21.567Z,100.00
2023-02-20T07:14:51.973Z,100.00
2023-02-20T07:17:20.337Z,100.00
2023-02-20T07:19:48.672Z,100.00
2023-02-20T07:22:17.121Z,100.00
2023-02-20T07:24:45.468Z,100.00
2023-02-20T07:27:13.997Z,100.00
2023-02-20T07:29:45.985Z,100.00
2023-02-20T07:32:14.610Z,100.00
2023-02-20T07:34:51.348Z,100.00
2023-02-20T07:37:29.880Z,100.00
2023-02-20T07:39:58.380Z,100.00
2023-02-20T07:42:26.736Z,100.00
2023-02-20T07:45:11.560Z,100.00
2023-02-20T07:47:39.980Z,100.00
2023-02-20T07:50:08.722Z,100.00
2023-02-20T07:52:37.106Z,100.00
2023-02-20T07:55:06.120Z,100.00
2023-02-20T07:57:37.105Z,100.00
2023-02-20T08:00:06.706Z,100.00
2023-02-20T08:02:41.947Z,100.00
2023-02-20T08:05:10.638Z,100.00
2023-02-20T08:07:39.647Z,100.00
2023-02-20T08:10:08.252Z,100.00
2023-02-20T08:12:36.686Z,100.00
2023-02-20T08:15:05.435Z,100.00
2023-02-20T08:17:45.591Z,100.00
2023-02-20T08:20:17.645Z,100.00
2023-02-20T08:22:46.618Z,100.00
2023-02-20T08:25:15.950Z,100.00
2023-02-20T08:27:45.359Z,100.00
2023-02-20T08:30:17.492Z,100.00
2023-02-20T08:32:46.109Z,100.00
2023-02-20T08:35:16.414Z,100.00
2023-02-20T08:37:45.461Z,100.00
2023-02-20T08:40:14.114Z,100.00
2023-02-20T08:42:42.547Z,100.00
2023-02-20T08:45:11.957Z,100.00
2023-02-20T08:47:40.359Z,100.00
2023-02-20T08:50:09.012Z,100.00
2023-02-20T08:52:38.749Z,100.00
2023-02-20T08:55:07.412Z,100.00
2023-02-20T08:57:35.816Z,100.00
2023-02-20T09:00:06.875Z,100.00
2023-02-20T09:02:35.314Z,100.00
2023-02-20T09:05:03.997Z,100.00
2023-02-20T09:07:32.362Z,100.00
2023-02-20T09:10:02.175Z,100.00
2023-02-20T09:12:32.004Z,100.00
2023-02-20T09:15:00.784Z,100.00
2023-02-20T09:17:29.487Z,100.00
2023-02-20T09:19:58.014Z,100.00
2023-02-20T09:22:27.426Z,100.00
2023-02-20T09:24:55.994Z,100.00
2023-02-20T09:27:25.758Z,100.00
2023-02-20T09:29:54.120Z,100.00
2023-02-20T09:32:22.723Z,100.00
2023-02-20T09:34:51.091Z,100.00
2023-02-20T09:37:19.708Z,100.00
2023-02-20T09:39:48.070Z,100.00
2023-02-20T09:42:31.302Z,100.00
2023-02-20T09:45:07.600Z,100.00
2023-02-20T09:47:47.715Z,98.95
2023-02-20T09:50:19.939Z,97.91
2023-02-20T09:52:57.734Z,100.00
2023-02-20T09:55:37.174Z,93.70
2023-02-20T09:58:08.223Z,90.79
2023-02-20T10:00:38.692Z,90.44
2023-02-20T10:03:20.643Z,85.34
2023-02-20T10:05:50.229Z,86.45
2023-02-20T10:08:21.436Z,86.61
2023-02-20T10:10:51.554Z,82.90
2023-02-20T10:13:52.564Z,87.57
2023-02-20T10:16:29.874Z,83.01
2023-02-20T10:19:11.222Z,84.46
2023-02-20T10:21:51.192Z,91.36
2023-02-20T10:24:28.678Z,86.78
2023-02-20T10:27:06.755Z,91.11
2023-02-20T10:29:38.227Z,83.16
2023-02-20T10:32:11.480Z,79.18
2023-02-20T10:34:43.789Z,72.88
2023-02-20T10:37:15.004Z,75.59
2023-02-20T10:39:52.001Z,74.53
2023-02-20T10:45:04.358Z,87.03
2023-02-20T10:47:42.858Z,94.47
2023-02-20T10:50:16.244Z,95.36
2023-02-20T10:52:50.908Z,99.01
2023-02-20T10:55:27.108Z,97.39
2023-02-20T10:58:01.113Z,98.54
2023-02-20T11:00:34.833Z,100.00
2023-02-20T11:03:08.879Z,100.00
2023-02-20T11:05:42.513Z,100.00
2023-02-20T11:08:10.965Z,100.00
2023-02-20T11:10:39.517Z,100.00
2023-02-20T11:13:15.805Z,100.00
2023-02-20T11:15:47.462Z,99.70
2023-02-20T11:18:25.950Z,99.47
2023-02-20T11:20:56.471Z,100.00
2023-02-20T11:23:38.143Z,100.00
2023-02-20T11:26:33.222Z,100.00
2023-02-20T11:29:07.842Z,100.00
2023-02-20T11:31:38.288Z,100.00
2023-02-20T11:34:07.664Z,100.00
2023-02-20T11:36:40.475Z,100.00
2023-02-20T11:39:21.010Z,99.50
2023-02-20T11:41:52.541Z,96.84
2023-02-20T11:44:26.569Z,95.24
2023-02-20T11:47:26.923Z,93.25
2023-02-20T11:50:19.481Z,86.91
2023-02-20T11:53:02.196Z,82.00
2023-02-20T11:55:30.661Z,83.19
2023-02-20T11:57:59.280Z,83.25
2023-02-20T12:00:29.284Z,86.32
2023-02-20T12:03:12.457Z,88.31
2023-02-20T12:05:42.719Z,93.98
2023-02-20T12:08:35.745Z,94.72
2023-02-20T12:11:08.355Z,98.98
2023-02-20T12:13:40.637Z,100.00
2023-02-20T12:16:30.336Z,100.00
2023-02-20T12:19:08.334Z,100.00
2023-02-20T12:21:50.615Z,100.00
2023-02-20T12:24:37.073Z,100.00
2023-02-20T12:27:19.821Z,100.00
2023-02-20T12:29:58.761Z,100.00
2023-02-20T12:32:36.096Z,100.00
2023-02-20T12:35:29.755Z,100.00
2023-02-20T12:38:15.102Z,100.00
2023-02-20T12:41:00.064Z,100.00
2023-02-20T12:43:38.122Z,100.00
2023-02-20T12:46:14.420Z,100.00
2023-02-20T12:48:52.157Z,100.00
2023-02-20T12:51:30.365Z,100.00
2023-02-20T12:54:25.929Z,100.00
2023-02-20T12:57:04.290Z,100.00
2023-02-20T12:59:38.372Z,100.00
2023-02-20T13:02:20.172Z,100.00
2023-02-20T13:04:54.754Z,100.00
2023-02-20T13:07:29.665Z,100.00
2023-02-20T13:10:04.143Z,100.00
2023-02-20T13:12:32.524Z,100.00
2023-02-20T13:15:19.026Z,100.00
2023-02-20T13:17:53.863Z,100.00
2023-02-20T13:20:25.924Z,100.00
2023-02-20T13:23:03.720Z,100.00
2023-02-20T13:25:41.738Z,100.00
2023-02-20T13:28:26.527Z,100.00
2023-02-20T13:31:25.026Z,100.00
2023-02-20T13:34:34.085Z,100.00
2023-02-20T13:37:03.209Z,100.00
2023-02-20T13:39:43.085Z,89.91
2023-02-20T13:42:32.469Z,89.00
2023-02-20T13:45:02.161Z,85.58
2023-02-20T13:47:38.152Z,80.59
2023-02-20T13:50:34.543Z,75.86
2023-02-20T13:53:06.271Z,73.45
2023-02-20T13:55:37.328Z,73.61
2023-02-20T13:58:13.347Z,76.98
2023-02-20T14:00:48.824Z,80.21
2023-02-20T14:03:22.110Z,80.75
2023-02-20T14:06:04.049Z,82.72
2023-02-20T14:08:32.951Z,78.84
2023-02-20T14:11:11.450Z,76.90
2023-02-20T14:13:42.774Z,76.69
2023-02-20T14:16:31.229Z,76.97
2023-02-20T14:19:01.677Z,75.98
2023-02-20T14:21:31.154Z,73.03
2023-02-20T14:24:17.482Z,75.95
2023-02-20T14:26:48.251Z,76.44
2023-02-20T14:29:26.014Z,76.97
2023-02-20T14:31:56.478Z,80.92
2023-02-20T14:34:35.518Z,86.63
2023-02-20T14:37:12.479Z,86.83
2023-02-20T14:39:49.076Z,82.58
2023-02-20T14:42:23.789Z,82.55
2023-02-20T14:44:59.893Z,86.72
2023-02-20T14:47:28.548Z,86.39
2023-02-20T14:50:15.781Z,87.38
2023-02-20T14:52:44.182Z,87.41
2023-02-20T14:55:17.950Z,92.98
2023-02-20T14:57:50.024Z,100.00
2023-02-20T15:00:33.410Z,100.00
2023-02-20T15:03:02.175Z,100.00
2023-02-20T15:05:34.240Z,100.00
2023-02-20T15:08:11.791Z,100.00
2023-02-20T15:10:43.340Z,100.00
2023-02-20T15:13:16.478Z,100.00
2023-02-20T15:15:48.204Z,100.00
2023-02-20T15:18:18.841Z,100.00
2023-02-20T15:20:49.450Z,100.00
2023-02-20T15:23:26.209Z,100.00
2023-02-20T15:25:54.829Z,100.00
2023-02-20T15:28:30.568Z,100.00
2023-02-20T15:31:15.384Z,100.00
2023-02-20T15:33:49.543Z,100.00
2023-02-20T15:36:21.280Z,100.00
2023-02-20T15:38:54.152Z,100.00
2023-02-20T15:41:24.151Z,100.00
2023-02-20T15:43:53.965Z,100.00
2023-02-20T15:46:22.540Z,100.00
2023-02-20T15:48:51.130Z,100.00
2023-02-20T15:51:22.786Z,100.00
2023-02-20T15:53:53.532Z,100.00
2023-02-20T15:56:22.038Z,100.00
2023-02-20T15:58:51.646Z,100.00
2023-02-20T16:01:21.505Z,100.00
2023-02-20T16:03:52.872Z,100.00
2023-02-20T16:06:23.382Z,100.00
2023-02-20T16:08:52.721Z,100.00
2023-02-20T16:11:23.657Z,100.00
2023-02-20T16:13:55.950Z,100.00
2023-02-20T16:16:32.678Z,100.00
2023-02-20T16:19:01.196Z,100.00
2023-02-20T16:21:29.847Z,100.00
2023-02-20T16:23:58.430Z,100.00
2023-02-20T16:26:29.650Z,100.00
2023-02-20T16:29:01.186Z,100.00
2023-02-20T16:32:03.022Z,100.00
2023-02-20T16:34:33.908Z,100.00
2023-02-20T16:37:07.243Z,100.00
2023-02-20T16:39:35.698Z,100.00
2023-02-20T16:42:15.245Z,100.00
2023-02-20T16:44:45.641Z,100.00
2023-02-20T16:47:16.169Z,100.00
2023-02-20T16:49:53.611Z,100.00
2023-02-20T16:52:25.996Z,100.00
2023-02-20T16:54:55.622Z,100.00
2023-02-20T16:57:33.002Z,100.00
2023-02-20T17:00:01.943Z,100.00
2023-02-20T17:02:32.369Z,100.00
2023-02-20T17:05:02.434Z,100.00
2023-02-20T17:07:31.358Z,100.00
2023-02-20T17:09:59.832Z,100.00
2023-02-20T17:12:28.489Z,100.00
2023-02-20T17:14:57.783Z,100.00
2023-02-20T17:17:26.268Z,100.00
2023-02-20T17:19:56.889Z,100.00
2023-02-20T17:22:28.278Z,100.00
2023-02-20T17:24:57.746Z,100.00
2023-02-20T17:27:26.337Z,100.00
2023-02-20T17:29:54.974Z,100.00
2023-02-20T17:32:23.489Z,100.00
2023-02-20T17:34:51.845Z,100.00
2023-02-20T17:37:20.213Z,100.00
2023-02-20T17:39:49.992Z,100.00
2023-02-20T17:42:18.621Z,100.00
2023-02-20T17:44:47.239Z,100.00
2023-02-20T17:47:15.817Z,100.00
2023-02-20T17:49:44.654Z,100.00
2023-02-20T17:52:14.439Z,100.00
2023-02-20T17:54:46.225Z,100.00
2023-02-20T17:57:18.814Z,100.00
2023-02-20T17:59:49.129Z,100.00
2023-02-20T18:02:18.314Z,100.00
2023-02-20T18:04:46.806Z,100.00
2023-02-20T18:07:17.157Z,100.00
2023-02-20T18:09:45.761Z,100.00
2023-02-20T18:12:14.178Z,100.00
2023-02-20T18:14:44.928Z,100.00
2023-02-20T18:17:13.773Z,100.00
2023-02-20T18:19:42.353Z,100.00
2023-02-20T18:22:10.739Z,100.00
2023-02-20T18:24:39.298Z,100.00
2023-02-20T18:27:08.011Z,100.00
2023-02-20T18:29:36.504Z,100.00
2023-02-20T18:32:07.289Z,100.00
2023-02-20T18:34:35.798Z,100.00
2023-02-20T18:37:04.188Z,100.00
2023-02-20T18:39:32.563Z,100.00
2023-02-20T18:42:00.998Z,100.00
2023-02-20T18:44:29.489Z,100.00
2023-02-20T18:47:00.619Z,100.00
2023-02-20T18:49:30.684Z,100.00
2023-02-20T18:51:59.069Z,100.00
2023-02-20T18:54:32.813Z,100.00
2023-02-20T18:57:02.634Z,100.00
2023-02-20T18:59:31.138Z,100.00
2023-02-20T19:02:03.058Z,100.00
2023-02-20T19:04:33.533Z,100.00
2023-02-20T19:07:03.540Z,100.00
2023-02-20T19:09:34.264Z,100.00
2023-02-20T19:12:04.104Z,100.00
2023-02-20T19:14:32.563Z,100.00
2023-02-20T19:17:03.224Z,100.00
2023-02-20T19:19:34.401Z,100.00
2023-02-20T19:22:03.381Z,100.00
2023-02-20T19:24:31.790Z,100.00
2023-02-20T19:27:00.360Z,100.00
2023-02-20T19:29:28.861Z,100.00
2023-02-20T19:32:00.308Z,100.00
2023-02-20T19:34:28.802Z,100.00
2023-02-20T19:36:58.579Z,100.00
2023-02-20T19:39:28.419Z,100.00
2023-02-20T19:42:04.468Z,100.00
2023-02-20T19:44:32.892Z,100.00
2023-02-20T19:47:01.326Z,100.00
2023-02-20T19:49:29.792Z,100.00
2023-02-20T19:51:59.619Z,100.00
2023-02-20T19:54:29.797Z,100.00
2023-02-20T19:57:00.976Z,100.00
2023-02-20T19:59:30.149Z,100.00
2023-02-20T20:02:01.354Z,100.00
2023-02-20T20:04:32.419Z,100.00
2023-02-20T20:07:03.526Z,100.00
2023-02-20T20:09:37.440Z,100.00
2023-02-20T20:12:28.877Z,100.00
2023-02-20T20:14:57.632Z,100.00
2023-02-20T20:17:26.103Z,100.00
2023-02-20T20:20:01.741Z,100.00
2023-02-20T20:22:32.445Z,100.00
2023-02-20T20:25:00.942Z,100.00
2023-02-20T20:27:29.352Z,100.00
2023-02-20T20:29:57.934Z,100.00
2023-02-20T20:32:26.468Z,100.00
2023-02-20T20:34:55.640Z,100.00
2023-02-20T20:37:25.875Z,100.00
2023-02-20T20:39:58.218Z,100.00
2023-02-20T20:42:28.590Z,100.00
2023-02-20T20:44:58.919Z,100.00
2023-02-20T20:47:29.719Z,100.00
2023-02-20T20:50:00.005Z,100.00
2023-02-20T20:52:30.674Z,100.00
2023-02-20T20:55:02.005Z,100.00
2023-02-20T20:57:34.517Z,100.00
2023-02-20T21:00:04.765Z,100.00
2023-02-20T21:02:33.309Z,100.00
2023-02-20T21:05:10.168Z,100.00
2023-02-20T21:07:39.753Z,100.00
2023-02-20T21:10:10.252Z,100.00
2023-02-20T21:12:38.791Z,100.00
2023-02-20T21:15:08.315Z,100.00
2023-02-20T21:17:37.187Z,100.00
2023-02-20T21:20:08.145Z,100.00
2023-02-20T21:22:36.773Z,100.00
2023-02-20T21:25:05.939Z,100.00
2023-02-20T21:27:35.715Z,100.00
2023-02-20T21:30:05.657Z,100.00
2023-02-20T21:32:34.137Z,100.00
2023-02-20T21:35:02.636Z,100.00
2023-02-20T21:37:31.160Z,100.00
2023-02-20T21:39:59.678Z,100.00
2023-02-20T21:42:45.662Z,100.00
2023-02-20T21:45:15.542Z,100.00
2023-02-20T21:47:44.143Z,100.00
2023-02-20T21:50:14.856Z,100.00
2023-02-20T21:52:45.417Z,100.00
2023-02-20T21:55:16.651Z,100.00
2023-02-20T21:57:45.136Z,100.00
2023-02-20T22:00:15.894Z,100.00
2023-02-20T22:02:43.357Z,100.00
2023-02-20T22:05:11.392Z,100.00
2023-02-20T22:07:57.520Z,100.00
2023-02-20T22:10:43.376Z,100.00
2023-02-20T22:13:30.059Z,100.00
2023-02-20T22:16:17.287Z,100.00
2023-02-20T22:19:03.600Z,100.00
2023-02-20T22:21:49.422Z,100.00
2023-02-20T22:24:39.327Z,100.00
2023-02-20T22:27:26.634Z,100.00
2023-02-20T22:30:12.921Z,100.00
2023-02-20T22:33:00.184Z,100.00
2023-02-20T22:35:46.305Z,100.00
2023-02-20T22:38:32.143Z,100.00
2023-02-20T22:41:17.878Z,100.00
2023-02-20T22:44:04.078Z,100.00
2023-02-20T22:46:49.935Z,100.00
2023-02-20T22:49:37.781Z,100.00
2023-02-20T22:52:23.602Z,100.00
2023-02-20T22:55:09.522Z,100.00
2023-02-20T22:57:55.622Z,100.00
2023-02-20T23:00:42.209Z,100.00
2023-02-20T23:03:29.456Z,100.00
2023-02-20T23:06:18.711Z,100.00
2023-02-20T23:09:06.290Z,100.00
2023-02-20T23:11:53.979Z,100.00
2023-02-20T23:14:40.046Z,100.00
2023-02-20T23:17:37.116Z,100.00
2023-02-20T23:20:25.889Z,100.00
2023-02-20T23:23:13.462Z,100.00
2023-02-20T23:25:59.260Z,100.00
2023-02-20T23:28:45.347Z,100.00
2023-02-20T23:31:31.834Z,100.00
2023-02-20T23:34:18.289Z,100.00
2023-02-20T23:37:05.291Z,100.00
2023-02-20T23:39:53.490Z,100.00
2023-02-20T23:42:40.368Z,100.00
2023-02-20T23:45:27.708Z,100.00
2023-02-20T23:48:13.591Z,100.00
2023-02-20T23:50:59.459Z,100.00
2023-02-20T23:53:45.767Z,100.00
2023-02-20T23:56:33.041Z,100.00
2023-02-20T23:59:19.082Z,100.00
